Time,TemperatureF,DewpointF,PressureIn,WindDirection,WindDirectionDegrees,WindSpeedMPH,WindSpeedGustMPH,Humidity,HourlyPrecipIn,Conditions,Clouds,dailyrainin,SoftwareType,DateUTC
2013-09-19 00:02:00,65.0,59.0,-100.00,WNW,295,9.0,12.0,81,-99.99,,,-99.99,,2013-09-19 05:02:00,
2013-09-19 00:43:00,65.0,59.0,-100.00,WNW,295,9.0,12.0,81,-99.99,,,-99.99,,2013-09-19 05:43:00,
2013-09-19 00:52:00,65.0,59.0,-100.00,WNW,295,9.0,12.0,81,-99.99,,,-99.99,,2013-09-19 05:52:00,
2013-09-19 01:02:00,64.0,58.0,-100.00,WNW,300,6.0,7.0,82,-99.99,,,-99.99,,2013-09-19 06:02:00,
2013-09-19 01:43:00,64.0,58.0,-100.00,WNW,300,6.0,7.0,82,-99.99,,,-99.99,,2013-09-19 06:43:00,
2013-09-19 01:52:00,64.0,58.0,-100.00,WNW,300,6.0,7.0,82,-99.99,,,-99.99,,2013-09-19 06:52:00,
2013-09-19 02:02:00,62.0,59.0,-100.00,WNW,285,11.0,12.0,89,-99.99,,,-99.99,,2013-09-19 07:02:00,
2013-09-19 02:42:00,62.0,59.0,-100.00,WNW,285,11.0,12.0,89,-99.99,,,-99.99,,2013-09-19 07:42:00,
2013-09-19 02:52:00,62.0,59.0,-100.00,WNW,285,11.0,12.0,89,-99.99,,,-99.99,,2013-09-19 07:52:00,
2013-09-19 03:02:00,60.0,56.0,-100.00,WSW,245,1.0,2.0,86,-99.99,,,-99.99,,2013-09-19 08:02:00,
2013-09-19 03:42:00,60.0,56.0,-100.00,WSW,245,1.0,2.0,86,-99.99,,,-99.99,,2013-09-19 08:42:00,
2013-09-19 03:52:00,60.0,56.0,-100.00,WSW,245,1.0,2.0,86,-99.99,,,-99.99,,2013-09-19 08:52:00,
2013-09-19 04:02:00,59.0,56.0,-100.00,North,0,2.0,4.0,92,-99.99,,,-99.99,,2013-09-19 09:02:00,
2013-09-19 04:43:00,59.0,56.0,-100.00,North,0,2.0,4.0,92,-99.99,,,-99.99,,2013-09-19 09:43:00,
2013-09-19 04:53:00,59.0,56.0,-100.00,North,0,2.0,4.0,92,-99.99,,,-99.99,,2013-09-19 09:53:00,
2013-09-19 05:02:00,57.0,55.0,-100.00,NW,315,4.0,6.0,94,-99.99,,,-99.99,,2013-09-19 10:02:00,
2013-09-19 05:43:00,57.0,55.0,-100.00,NW,315,4.0,6.0,94,-99.99,,,-99.99,,2013-09-19 10:43:00,
2013-09-19 05:52:00,57.0,55.0,-100.00,NW,315,4.0,6.0,94,-99.99,,,-99.99,,2013-09-19 10:52:00,
2013-09-19 06:42:00,55.0,52.0,-100.00,West,260,1.0,2.0,92,-99.99,,,-99.99,,2013-09-19 11:42:00,
2013-09-19 06:53:00,55.0,52.0,-100.00,West,260,1.0,2.0,92,-99.99,,,-99.99,,2013-09-19 11:53:00,
2013-09-19 07:01:00,55.0,52.0,-100.00,West,260,1.0,2.0,92,-99.99,,,-99.99,,2013-09-19 12:01:00,
2013-09-19 07:02:00,53.0,51.0,-100.00,WNW,300,6.0,7.0,93,-99.99,,,-99.99,,2013-09-19 12:02:00,
2013-09-19 07:43:00,53.0,51.0,-100.00,WNW,300,6.0,7.0,93,-99.99,,,-99.99,,2013-09-19 12:43:00,
2013-09-19 07:52:00,53.0,51.0,-100.00,WNW,300,6.0,7.0,93,-99.99,,,-99.99,,2013-09-19 12:52:00,
2013-09-19 08:02:00,53.0,49.0,-100.00,WNW,290,14.0,18.0,86,-99.99,,,-99.99,,2013-09-19 13:02:00,
2013-09-19 08:43:00,53.0,49.0,-100.00,WNW,290,14.0,18.0,86,-99.99,,,-99.99,,2013-09-19 13:43:00,
2013-09-19 08:52:00,53.0,49.0,-100.00,WNW,290,14.0,18.0,86,-99.99,,,-99.99,,2013-09-19 13:52:00,
2013-09-19 09:42:00,53.0,47.0,-100.00,West,270,12.0,16.0,79,-99.99,,,-99.99,,2013-09-19 14:42:00,
2013-09-19 09:52:00,53.0,47.0,-100.00,West,270,12.0,16.0,79,-99.99,,,-99.99,,2013-09-19 14:52:00,
2013-09-19 10:01:00,53.0,47.0,-100.00,West,270,12.0,16.0,79,-99.99,,,-99.99,,2013-09-19 15:01:00,
2013-09-19 10:02:00,56.0,48.0,-100.00,West,265,16.0,20.0,73,-99.99,,,-99.99,,2013-09-19 15:02:00,
2013-09-19 10:43:00,56.0,48.0,-100.00,West,265,16.0,20.0,73,-99.99,,,-99.99,,2013-09-19 15:43:00,
2013-09-19 10:54:00,56.0,48.0,-100.00,West,265,16.0,20.0,73,-99.99,,,-99.99,,2013-09-19 15:54:00,
2013-09-19 11:02:00,56.0,49.0,-100.00,WNW,290,21.0,27.0,78,-99.99,,,-99.99,,2013-09-19 16:02:00,
2013-09-19 11:43:00,56.0,49.0,-100.00,WNW,290,21.0,27.0,78,-99.99,,,-99.99,,2013-09-19 16:43:00,
2013-09-19 11:53:00,56.0,49.0,-100.00,WNW,290,21.0,27.0,78,-99.99,,,-99.99,,2013-09-19 16:53:00,
2013-09-19 12:02:00,57.0,52.0,-100.00,WNW,285,17.0,22.0,83,-99.99,,,-99.99,,2013-09-19 17:02:00,
2013-09-19 12:42:00,57.0,52.0,-100.00,WNW,285,17.0,22.0,83,-99.99,,,-99.99,,2013-09-19 17:42:00,
2013-09-19 12:53:00,57.0,52.0,-100.00,WNW,285,17.0,22.0,83,-99.99,,,-99.99,,2013-09-19 17:53:00,
2013-09-19 13:02:00,57.0,51.0,-100.00,WNW,295,15.0,22.0,82,-99.99,,,-99.99,,2013-09-19 18:02:00,
2013-09-19 13:42:00,57.0,51.0,-100.00,WNW,295,15.0,22.0,82,-99.99,,,-99.99,,2013-09-19 18:42:00,
2013-09-19 13:52:00,57.0,51.0,-100.00,WNW,295,15.0,22.0,82,-99.99,,,-99.99,,2013-09-19 18:52:00,
2013-09-19 14:02:00,56.0,50.0,-100.00,WNW,300,15.0,18.0,82,-99.99,,,-99.99,,2013-09-19 19:02:00,
2013-09-19 14:42:00,56.0,50.0,-100.00,WNW,300,15.0,18.0,82,-99.99,,,-99.99,,2013-09-19 19:42:00,
2013-09-19 14:52:00,56.0,50.0,-100.00,WNW,300,15.0,18.0,82,-99.99,,,-99.99,,2013-09-19 19:52:00,
2013-09-19 15:02:00,56.0,49.0,-100.00,NW,305,17.0,26.0,79,-99.99,,,-99.99,,2013-09-19 20:02:00,
2013-09-19 15:42:00,56.0,49.0,-100.00,NW,305,17.0,26.0,79,-99.99,,,-99.99,,2013-09-19 20:42:00,
2013-09-19 15:52:00,56.0,49.0,-100.00,NW,305,17.0,26.0,79,-99.99,,,-99.99,,2013-09-19 20:52:00,
2013-09-19 16:02:00,56.0,49.0,-100.00,NW,305,12.0,17.0,78,-99.99,,,-99.99,,2013-09-19 21:02:00,
2013-09-19 16:44:00,56.0,49.0,-100.00,NW,305,12.0,17.0,78,-99.99,,,-99.99,,2013-09-19 21:44:00,
2013-09-19 16:55:00,56.0,49.0,-100.00,NW,305,12.0,17.0,78,-99.99,,,-99.99,,2013-09-19 21:55:00,
2013-09-19 17:02:00,55.0,48.0,-100.00,NW,305,11.0,16.0,78,-99.99,,,-99.99,,2013-09-19 22:02:00,
2013-09-19 17:42:00,55.0,48.0,-100.00,NW,305,11.0,16.0,78,-99.99,,,-99.99,,2013-09-19 22:42:00,
2013-09-19 17:53:00,55.0,48.0,-100.00,NW,305,11.0,16.0,78,-99.99,,,-99.99,,2013-09-19 22:53:00,
2013-09-19 18:02:00,53.0,49.0,-100.00,WNW,300,9.0,12.0,87,-99.99,,,-99.99,,2013-09-19 23:02:00,
2013-09-19 18:43:00,53.0,49.0,-100.00,WNW,300,9.0,12.0,87,-99.99,,,-99.99,,2013-09-19 23:43:00,
2013-09-19 18:53:00,53.0,49.0,-100.00,WNW,300,9.0,12.0,87,-99.99,,,-99.99,,2013-09-19 23:53:00,
2013-09-19 19:02:00,53.0,49.0,-100.00,NW,310,8.0,11.0,85,-99.99,,,-99.99,,2013-09-20 00:02:00,
2013-09-19 19:42:00,53.0,49.0,-100.00,NW,310,8.0,11.0,85,-99.99,,,-99.99,,2013-09-20 00:42:00,
2013-09-19 19:52:00,53.0,49.0,-100.00,NW,310,8.0,11.0,85,-99.99,,,-99.99,,2013-09-20 00:52:00,
2013-09-19 20:02:00,53.0,49.0,-100.00,WNW,285,6.0,9.0,87,-99.99,,,-99.99,,2013-09-20 01:02:00,
2013-09-19 20:42:00,53.0,49.0,-100.00,WNW,285,6.0,9.0,87,-99.99,,,-99.99,,2013-09-20 01:42:00,
2013-09-19 20:52:00,53.0,49.0,-100.00,WNW,285,6.0,9.0,87,-99.99,,,-99.99,,2013-09-20 01:52:00,
2013-09-19 21:02:00,53.0,48.0,-100.00,NW,305,7.0,11.0,84,-99.99,,,-99.99,,2013-09-20 02:02:00,
2013-09-19 21:42:00,53.0,48.0,-100.00,NW,305,7.0,11.0,84,-99.99,,,-99.99,,2013-09-20 02:42:00,
2013-09-19 21:53:00,53.0,48.0,-100.00,NW,305,7.0,11.0,84,-99.99,,,-99.99,,2013-09-20 02:53:00,
2013-09-19 22:02:00,52.0,47.0,-100.00,NW,325,7.0,12.0,82,-99.99,,,-99.99,,2013-09-20 03:02:00,
2013-09-19 22:45:00,52.0,47.0,-100.00,NW,325,7.0,12.0,82,-99.99,,,-99.99,,2013-09-20 03:45:00,
2013-09-19 22:56:00,52.0,47.0,-100.00,NW,325,7.0,12.0,82,-99.99,,,-99.99,,2013-09-20 03:56:00,
2013-09-19 23:02:00,51.0,48.0,-100.00,WNW,300,3.0,6.0,90,-99.99,,,-99.99,,2013-09-20 04:02:00,
2013-09-19 23:44:00,51.0,48.0,-100.00,WNW,300,3.0,6.0,90,-99.99,,,-99.99,,2013-09-20 04:44:00,
2013-09-19 23:54:00,51.0,48.0,-100.00,WNW,300,3.0,6.0,90,-99.99,,,-99.99,,2013-09-20 04:54:00,